Time;durP1;ratioP1;P1;durP2;ratioP2;P2;SDS_P1;SDS_P2;PMS_P1;PMS_P2;Temp;Humidity;BMP_temperature;BMP_pressure;BME280_temperature;BME280_humidity;BME280_pressure;Samples;Min_cycle;Max_cycle;Signal;HPM_P1;HPM_P2
2021/11/03 00:00:43;;;;;;;15.95;7.50;;;25.40;99.90;;;;;;4192543;28;20049;-67
2021/11/03 00:02:48;;;;;;;15.85;8.00;;;25.40;99.90;;;;;;4194582;28;20410;-68
2021/11/03 00:04:53;;;;;;;14.55;7.43;;;25.40;99.90;;;;;;4192847;28;20040;-68
2021/11/03 00:06:58;;;;;;;12.75;7.50;;;25.60;99.90;;;;;;4192399;28;20507;-68
2021/11/03 00:09:03;;;;;;;16.08;7.22;;;25.60;99.90;;;;;;4191168;28;21029;-68
2021/11/03 00:11:09;;;;;;;16.75;7.03;;;25.60;99.90;;;;;;4188806;28;20037;-68
2021/11/03 00:13:15;;;;;;;15.52;7.45;;;25.50;99.90;;;;;;4191933;28;20136;-68
2021/11/03 00:15:20;;;;;;;15.45;7.45;;;25.40;99.90;;;;;;4190756;28;20071;-68
2021/11/03 00:17:27;;;;;;;15.20;7.30;;;25.40;99.90;;;;;;4194595;28;20051;-68
2021/11/03 00:19:31;;;;;;;15.60;7.60;;;25.40;99.90;;;;;;4191601;28;20036;-68
2021/11/03 00:21:36;;;;;;;13.20;7.47;;;25.40;99.90;;;;;;4194716;28;20044;-68
2021/11/03 00:23:40;;;;;;;17.20;8.25;;;25.50;99.90;;;;;;4195456;28;20047;-68
2021/11/03 00:25:48;;;;;;;13.73;7.88;;;25.60;99.90;;;;;;4203990;28;20068;-69
2021/11/03 00:27:52;;;;;;;18.25;9.55;;;25.60;99.90;;;;;;4188420;28;20127;-69
2021/11/03 00:29:57;;;;;;;16.05;9.18;;;25.60;99.90;;;;;;4195274;28;20453;-68
2021/11/03 00:32:05;;;;;;;19.52;8.80;;;25.60;99.90;;;;;;4203472;28;20041;-68
2021/11/03 00:34:10;;;;;;;16.83;7.75;;;25.70;99.90;;;;;;4194511;28;20161;-68
2021/11/03 00:36:15;;;;;;;12.10;7.05;;;25.90;99.90;;;;;;4196004;28;20040;-68
2021/11/03 00:38:20;;;;;;;13.55;6.70;;;25.70;99.90;;;;;;4195860;28;20109;-69
2021/11/03 00:40:24;;;;;;;15.65;7.50;;;25.70;99.90;;;;;;4194494;28;20059;-69
2021/11/03 00:42:29;;;;;;;18.65;6.00;;;25.70;99.90;;;;;;4186119;28;20105;-68
2021/11/03 00:44:33;;;;;;;14.35;6.25;;;25.70;99.90;;;;;;4195916;28;20110;-68
2021/11/03 00:46:38;;;;;;;14.57;7.43;;;25.80;99.90;;;;;;4194347;28;20068;-68
2021/11/03 00:48:45;;;;;;;15.82;6.50;;;25.90;99.90;;;;;;4194625;28;20052;-68
2021/11/03 00:50:51;;;;;;;12.60;6.00;;;25.90;99.90;;;;;;4194155;28;20051;-68
2021/11/03 00:52:55;;;;;;;9.63;5.43;;;26.00;99.90;;;;;;4186443;28;20122;-68
2021/11/03 00:55:00;;;;;;;13.05;6.22;;;26.00;99.90;;;;;;4192190;28;20067;-68
2021/11/03 00:57:07;;;;;;;13.25;7.07;;;25.90;99.90;;;;;;4194624;28;20048;-66
2021/11/03 00:59:11;;;;;;;17.27;5.85;;;25.90;99.90;;;;;;4207064;28;20045;-67
2021/11/03 01:01:16;;;;;;;12.25;6.15;;;26.10;99.90;;;;;;4195575;28;20064;-67
2021/11/03 01:03:21;;;;;;;15.57;6.60;;;26.20;99.90;;;;;;4194349;28;20033;-67
2021/11/03 01:05:28;;;;;;;12.23;5.90;;;26.30;99.90;;;;;;4192695;28;20048;-68
2021/11/03 01:07:33;;;;;;;13.70;5.65;;;26.30;99.90;;;;;;4193680;28;20109;-67
2021/11/03 01:09:38;;;;;;;13.15;5.45;;;26.30;99.90;;;;;;4194788;28;20086;-67
2021/11/03 01:11:43;;;;;;;12.75;4.80;;;26.20;99.90;;;;;;4193328;28;20040;-67
2021/11/03 01:13:48;;;;;;;12.02;5.20;;;26.20;99.90;;;;;;4191667;28;20047;-67
2021/11/03 01:15:52;;;;;;;12.85;4.50;;;26.30;99.90;;;;;;4195212;28;20098;-67
2021/11/03 01:17:57;;;;;;;12.70;4.45;;;26.50;99.90;;;;;;4194142;28;20455;-67
2021/11/03 01:20:03;;;;;;;12.13;4.95;;;26.60;99.90;;;;;;4192448;28;20056;-67
2021/11/03 01:22:09;;;;;;;10.38;4.30;;;26.50;99.90;;;;;;4190104;28;20099;-66
2021/11/03 01:24:14;;;;;;;17.70;4.57;;;26.40;99.90;;;;;;4192461;28;20052;-66
2021/11/03 01:26:21;;;;;;;11.85;4.25;;;26.60;99.90;;;;;;4193886;28;20049;-67
2021/11/03 01:28:28;;;;;;;10.07;5.07;;;26.60;99.90;;;;;;4191762;28;20052;-67
2021/11/03 01:30:32;;;;;;;12.73;4.40;;;26.60;99.90;;;;;;4193388;28;20044;-67
2021/11/03 01:32:38;;;;;;;9.05;4.43;;;26.70;99.90;;;;;;4191533;28;20040;-68
2021/11/03 01:34:45;;;;;;;15.57;5.60;;;26.80;99.90;;;;;;4192636;28;20128;-67
2021/11/03 01:36:50;;;;;;;10.30;4.60;;;26.80;99.90;;;;;;4192022;28;20481;-67
2021/11/03 01:38:54;;;;;;;12.73;5.80;;;27.00;99.90;;;;;;4193420;28;20040;-67
2021/11/03 01:41:00;;;;;;;16.10;5.20;;;27.00;99.90;;;;;;4192418;28;20503;-66
2021/11/03 01:43:05;;;;;;;12.18;4.10;;;27.10;99.90;;;;;;4202833;28;20124;-66
2021/11/03 01:45:12;;;;;;;9.27;4.20;;;27.10;99.90;;;;;;4193567;28;20068;-66
2021/11/03 01:47:40;;;;;;;10.82;5.25;;;27.10;99.90;;;;;;4193973;28;20495;-67
2021/11/03 01:49:45;;;;;;;13.35;4.30;;;27.20;99.90;;;;;;4189468;28;20388;-67
2021/11/03 01:52:07;;;;;;;10.02;4.05;;;27.20;99.90;;;;;;4182078;28;20063;-68
2021/11/03 01:54:23;;;;;;;11.75;4.43;;;27.20;99.90;;;;;;4198747;28;20040;-67
2021/11/03 01:56:31;;;;;;;7.93;3.55;;;27.20;99.90;;;;;;4186178;28;20538;-67
2021/11/03 01:58:50;;;;;;;11.05;4.35;;;27.20;99.90;;;;;;4183709;28;20166;-67
2021/11/03 02:00:57;;;;;;;12.57;4.47;;;27.30;99.90;;;;;;4193155;28;20518;-67
2021/11/03 02:03:09;;;;;;;10.60;4.07;;;27.40;99.90;;;;;;4192597;28;20131;-67
2021/11/03 02:05:18;;;;;;;9.77;3.70;;;27.40;99.90;;;;;;4175001;28;20511;-67
2021/11/03 02:07:25;;;;;;;10.45;4.15;;;27.40;99.90;;;;;;4171310;28;20049;-67
2021/11/03 02:09:32;;;;;;;9.68;3.47;;;27.50;99.90;;;;;;4171260;28;20068;-68
2021/11/03 02:11:38;;;;;;;8.35;3.78;;;27.60;99.90;;;;;;4185011;28;20036;-68
2021/11/03 02:13:42;;;;;;;11.38;4.00;;;27.60;99.90;;;;;;4190839;28;20048;-68
2021/11/03 02:15:47;;;;;;;10.85;3.60;;;27.70;99.90;;;;;;4191455;28;20138;-68
2021/11/03 02:17:52;;;;;;;11.77;4.00;;;27.70;99.90;;;;;;4189552;28;20127;-71
2021/11/03 02:19:59;;;;;;;13.10;3.90;;;27.80;99.90;;;;;;4195964;28;20066;-70
2021/11/03 02:22:24;;;;;;;12.57;3.55;;;27.90;99.90;;;;;;4193626;28;20050;-71
2021/11/03 02:25:08;;;;;;;11.43;3.20;;;27.90;99.90;;;;;;4190139;28;20051;-69
2021/11/03 02:27:13;;;;;;;7.75;3.05;;;27.90;99.90;;;;;;4184425;28;20076;-70
2021/11/03 02:29:20;;;;;;;7.72;3.17;;;27.90;99.90;;;;;;4193021;28;20056;-69
2021/11/03 02:31:49;;;;;;;8.40;3.20;;;27.90;99.80;;;;;;4174999;28;20511;-69
2021/11/03 02:33:54;;;;;;;7.32;3.13;;;27.90;99.60;;;;;;4192629;28;20092;-70
2021/11/03 02:36:03;;;;;;;14.35;3.75;;;28.00;99.80;;;;;;4192931;28;20040;-70
2021/11/03 02:38:10;;;;;;;8.15;3.38;;;28.10;99.90;;;;;;4193958;28;20190;-71
2021/11/03 02:40:38;;;;;;;10.07;3.60;;;28.10;99.70;;;;;;4190598;28;20121;-70
2021/11/03 02:42:46;;;;;;;7.22;3.08;;;28.10;99.30;;;;;;4193696;28;20552;-69
2021/11/03 02:44:50;;;;;;;9.57;3.10;;;28.20;99.30;;;;;;4192681;28;20406;-70
2021/11/03 02:46:55;;;;;;;8.82;2.60;;;28.30;99.30;;;;;;4193847;28;20052;-69
2021/11/03 02:49:00;;;;;;;9.63;2.80;;;28.30;99.00;;;;;;4192739;28;20068;-69
2021/11/03 02:51:28;;;;;;;8.52;2.75;;;28.40;99.10;;;;;;4193983;28;20040;-70
2021/11/03 02:53:36;;;;;;;7.18;2.72;;;28.40;99.20;;;;;;4176738;28;20047;-72
2021/11/03 02:55:41;;;;;;;11.18;2.55;;;28.50;98.80;;;;;;4193111;28;20098;-70
2021/11/03 02:57:45;;;;;;;8.60;3.30;;;28.50;98.90;;;;;;4193138;28;20127;-70
2021/11/03 02:59:50;;;;;;;9.02;2.75;;;28.50;98.60;;;;;;4189328;28;20049;-69
2021/11/03 03:01:57;;;;;;;11.43;3.30;;;28.50;98.70;;;;;;4192127;28;20119;-69
2021/11/03 03:04:11;;;;;;;11.05;4.30;;;28.60;98.70;;;;;;4193620;28;20071;-69
2021/11/03 03:06:19;;;;;;;11.60;3.80;;;28.60;98.70;;;;;;4191764;28;20112;-69
2021/11/03 03:08:24;;;;;;;8.15;3.40;;;28.60;98.60;;;;;;4189026;28;20291;-70
2021/11/03 03:10:29;;;;;;;8.85;3.15;;;28.70;98.60;;;;;;4191930;28;20051;-70
2021/11/03 03:12:34;;;;;;;7.82;3.22;;;28.70;98.30;;;;;;4191239;28;20384;-70
2021/11/03 03:14:39;;;;;;;10.52;4.05;;;28.80;98.30;;;;;;4190425;28;20044;-69
2021/11/03 03:16:46;;;;;;;8.57;3.35;;;28.80;98.60;;;;;;4191899;28;20493;-69
2021/11/03 03:18:51;;;;;;;8.95;3.10;;;28.80;98.10;;;;;;4191276;28;20036;-70
2021/11/03 03:20:56;;;;;;;10.65;3.53;;;28.80;98.00;;;;;;4196001;28;20433;-69
2021/11/03 03:23:17;;;;;;;8.88;3.25;;;28.90;97.90;;;;;;4191448;28;20119;-70
2021/11/03 03:25:22;;;;;;;10.25;3.30;;;28.80;97.40;;;;;;4190264;28;20595;-69
2021/11/03 03:27:27;;;;;;;8.55;2.85;;;28.90;98.10;;;;;;4176345;28;20132;-71
2021/11/03 03:29:33;;;;;;;6.72;2.65;;;28.90;97.40;;;;;;4193476;28;20515;-69
2021/11/03 03:31:37;;;;;;;6.53;3.05;;;29.00;97.70;;;;;;4192300;28;20044;-69
2021/11/03 03:33:44;;;;;;;7.15;2.97;;;29.00;97.70;;;;;;4196860;28;20131;-69
2021/11/03 03:35:49;;;;;;;8.15;3.30;;;29.10;97.70;;;;;;4191822;28;20036;-69
2021/11/03 03:37:55;;;;;;;8.05;3.42;;;29.10;97.50;;;;;;4208277;28;20075;-69
2021/11/03 03:40:00;;;;;;;18.17;4.18;;;29.20;97.70;;;;;;4189137;28;20082;-69
2021/11/03 03:42:12;;;;;;;7.35;3.05;;;29.20;97.80;;;;;;4190883;28;20059;-69
2021/11/03 03:44:17;;;;;;;8.10;3.10;;;29.30;97.40;;;;;;4192253;28;20037;-68
2021/11/03 03:46:27;;;;;;;10.57;2.78;;;29.30;97.50;;;;;;4192576;28;20033;-68
2021/11/03 03:48:33;;;;;;;6.40;2.85;;;29.30;97.00;;;;;;4191938;28;20664;-69
2021/11/03 03:50:39;;;;;;;10.07;3.25;;;29.30;96.90;;;;;;4188731;28;20607;-67
2021/11/03 03:52:46;;;;;;;8.30;2.95;;;29.30;97.20;;;;;;4194445;28;20028;-68
2021/11/03 03:54:53;;;;;;;8.35;2.83;;;29.30;97.40;;;;;;4195300;28;20056;-68
2021/11/03 03:57:00;;;;;;;8.32;3.03;;;29.40;97.40;;;;;;4193680;28;20431;-67
2021/11/03 03:59:08;;;;;;;7.30;3.17;;;29.30;97.00;;;;;;4194623;28;20075;-67
2021/11/03 04:01:15;;;;;;;6.60;2.50;;;29.20;97.40;;;;;;4202308;28;20127;-67
2021/11/03 04:03:20;;;;;;;8.32;3.33;;;29.30;97.30;;;;;;4193779;28;20040;-67
2021/11/03 04:05:25;;;;;;;8.52;2.75;;;29.40;97.20;;;;;;4193850;28;20049;-67
2021/11/03 04:07:31;;;;;;;8.05;2.90;;;29.40;96.50;;;;;;4192969;28;20070;-67
2021/11/03 04:09:36;;;;;;;10.57;3.50;;;29.40;96.50;;;;;;4192835;28;20110;-66
2021/11/03 04:11:43;;;;;;;7.53;2.60;;;29.50;96.30;;;;;;4193838;28;20037;-67
2021/11/03 04:13:53;;;;;;;6.72;2.83;;;29.50;96.00;;;;;;4194506;28;20041;-68
2021/11/03 04:15:59;;;;;;;8.73;2.80;;;29.50;96.00;;;;;;4185711;28;20268;-67
2021/11/03 04:18:05;;;;;;;7.70;3.13;;;29.70;96.40;;;;;;4193761;28;20056;-68
2021/11/03 04:20:11;;;;;;;6.00;2.65;;;29.70;96.50;;;;;;4194836;28;20080;-68
2021/11/03 04:22:19;;;;;;;6.38;2.70;;;29.80;96.50;;;;;;4211268;28;20571;-67
2021/11/03 04:24:23;;;;;;;10.15;3.05;;;29.90;96.10;;;;;;4194746;28;20041;-67
2021/11/03 04:26:32;;;;;;;6.85;2.50;;;29.90;96.10;;;;;;4194799;28;20037;-66
2021/11/03 04:28:41;;;;;;;12.07;3.03;;;30.10;96.10;;;;;;4203186;28;20052;-66
2021/11/03 04:30:46;;;;;;;7.57;2.83;;;30.10;95.50;;;;;;4194843;28;20399;-66
2021/11/03 04:32:52;;;;;;;11.48;2.97;;;30.10;95.40;;;;;;4192746;28;20067;-67
2021/11/03 04:35:00;;;;;;;9.32;3.00;;;30.20;95.10;;;;;;4199153;28;20127;-67
2021/11/03 04:37:04;;;;;;;7.55;2.80;;;30.20;95.40;;;;;;4191905;28;20060;-67
2021/11/03 04:39:13;;;;;;;9.07;3.00;;;30.20;95.40;;;;;;4176148;28;20078;-67
2021/11/03 04:41:20;;;;;;;7.18;2.55;;;30.20;95.20;;;;;;4190404;28;20533;-68
2021/11/03 04:43:27;;;;;;;5.53;2.40;;;30.30;94.90;;;;;;4194775;28;20049;-67
2021/11/03 04:45:32;;;;;;;7.18;2.30;;;30.40;95.00;;;;;;4194118;28;20033;-67
2021/11/03 04:47:40;;;;;;;5.60;2.60;;;30.30;95.00;;;;;;4193672;28;20086;-67
2021/11/03 04:49:44;;;;;;;7.40;2.38;;;30.40;94.70;;;;;;4193752;28;20062;-67
2021/11/03 04:51:49;;;;;;;5.68;2.70;;;30.40;94.40;;;;;;4194832;28;20033;-67
2021/11/03 04:53:54;;;;;;;7.03;2.95;;;30.40;94.20;;;;;;4192611;28;20450;-67
2021/11/03 04:56:01;;;;;;;7.05;2.90;;;30.40;94.40;;;;;;4191041;28;20048;-65
2021/11/03 04:58:08;;;;;;;6.82;2.83;;;30.40;94.40;;;;;;4177328;28;20474;-66
2021/11/03 05:00:24;;;;;;;6.28;2.60;;;30.40;94.30;;;;;;4185515;28;20166;-66
2021/11/03 05:02:32;;;;;;;10.48;2.63;;;30.50;94.40;;;;;;4204833;28;20106;-66
2021/11/03 05:04:37;;;;;;;6.30;2.38;;;30.50;94.30;;;;;;4193424;28;20383;-65
2021/11/03 05:06:48;;;;;;;6.22;2.47;;;30.50;94.00;;;;;;4193315;28;20415;-65
2021/11/03 05:08:54;;;;;;;7.85;2.65;;;30.50;94.10;;;;;;4196150;28;20067;-65
2021/11/03 05:11:00;;;;;;;9.15;2.83;;;30.60;94.00;;;;;;4193602;28;20123;-65
2021/11/03 05:13:06;;;;;;;5.30;2.47;;;30.60;94.10;;;;;;4193139;28;20353;-65
2021/11/03 05:15:11;;;;;;;8.30;2.97;;;30.60;93.90;;;;;;4193491;28;20520;-66
2021/11/03 05:17:18;;;;;;;6.97;2.67;;;30.60;93.60;;;;;;4192164;28;20144;-66
2021/11/03 05:19:28;;;;;;;8.55;2.95;;;30.60;93.60;;;;;;4192601;28;20060;-66
2021/11/03 05:21:55;;;;;;;9.70;2.80;;;30.60;93.80;;;;;;4193715;28;20450;-66
2021/11/03 05:24:07;;;;;;;6.60;3.00;;;30.50;93.90;;;;;;4193923;28;20067;-66
2021/11/03 05:26:13;;;;;;;6.72;2.45;;;30.40;94.20;;;;;;4192584;28;20067;-66
2021/11/03 05:28:17;;;;;;;9.20;3.00;;;30.50;94.60;;;;;;4202755;28;20399;-66
2021/11/03 05:30:23;;;;;;;9.50;3.47;;;30.60;94.00;;;;;;4194666;28;20079;-67
2021/11/03 05:32:28;;;;;;;6.25;3.30;;;30.70;94.30;;;;;;4193222;28;20048;-66
2021/11/03 05:34:33;;;;;;;6.75;2.70;;;30.50;94.00;;;;;;4193632;28;20101;-66
2021/11/03 05:36:38;;;;;;;6.65;2.40;;;30.60;94.30;;;;;;4194821;28;20052;-65
2021/11/03 05:38:43;;;;;;;7.78;2.75;;;30.70;94.10;;;;;;4192133;28;20048;-67
2021/11/03 05:40:47;;;;;;;8.43;2.70;;;30.80;93.80;;;;;;4194267;28;20052;-67
2021/11/03 05:42:52;;;;;;;5.28;2.42;;;30.90;93.60;;;;;;4192963;28;20064;-67
2021/11/03 05:44:56;;;;;;;6.32;2.45;;;30.80;92.90;;;;;;4192836;28;20045;-67
2021/11/03 05:47:00;;;;;;;6.90;2.40;;;30.70;93.30;;;;;;4192565;28;20040;-66
2021/11/03 05:49:09;;;;;;;7.22;2.88;;;30.70;93.10;;;;;;4194074;28;20032;-67
2021/11/03 05:51:14;;;;;;;8.32;3.53;;;30.90;93.70;;;;;;4191719;28;20033;-66
2021/11/03 05:53:19;;;;;;;4.88;2.67;;;30.90;93.50;;;;;;4191085;28;20098;-66
2021/11/03 05:55:23;;;;;;;7.78;2.80;;;30.90;93.20;;;;;;4193442;28;20055;-66
2021/11/03 05:57:33;;;;;;;6.50;2.50;;;30.90;93.40;;;;;;4190434;28;20054;-67
2021/11/03 05:59:38;;;;;;;4.72;2.33;;;31.00;93.60;;;;;;4192549;28;20044;-67
2021/11/03 06:01:43;;;;;;;4.38;2.45;;;31.00;92.80;;;;;;4194054;28;20036;-67
2021/11/03 06:03:48;;;;;;;5.82;2.63;;;30.90;92.90;;;;;;4192819;28;20458;-67
2021/11/03 06:05:52;;;;;;;7.50;2.80;;;30.90;93.10;;;;;;4192407;28;20109;-67
2021/11/03 06:08:05;;;;;;;8.75;2.67;;;30.90;93.60;;;;;;4194641;28;20402;-67
2021/11/03 06:10:10;;;;;;;;;;;31.00;93.10;;;;;;4193674;28;20048;-67
2021/11/03 06:12:15;;;;;;;4.90;2.25;;;31.10;92.90;;;;;;4200249;28;19920;-67
2021/11/03 06:14:20;;;;;;;6.63;2.22;;;31.00;92.40;;;;;;4191252;28;20045;-68
2021/11/03 06:16:24;;;;;;;6.72;2.65;;;31.10;92.60;;;;;;4193372;28;20040;-67
2021/11/03 06:18:29;;;;;;;6.13;2.58;;;31.20;92.50;;;;;;4193002;28;20040;-66
2021/11/03 06:20:34;;;;;;;6.15;2.50;;;31.40;92.90;;;;;;4192012;28;20052;-68
2021/11/03 06:22:39;;;;;;;7.60;2.60;;;31.40;92.90;;;;;;4192137;28;20376;-67
2021/11/03 06:24:44;;;;;;;6.82;2.15;;;31.50;92.90;;;;;;4192708;28;20045;-67
2021/11/03 06:26:49;;;;;;;6.25;2.40;;;31.60;92.70;;;;;;4193130;28;20068;-67
2021/11/03 06:28:54;;;;;;;6.35;2.50;;;31.50;92.20;;;;;;4192088;28;20128;-68
2021/11/03 06:30:59;;;;;;;6.25;2.22;;;31.30;92.30;;;;;;4192952;28;20043;-68
2021/11/03 06:33:04;;;;;;;6.10;2.72;;;31.00;92.30;;;;;;4193705;28;20105;-68
2021/11/03 06:35:10;;;;;;;9.27;3.03;;;30.90;92.60;;;;;;4189820;28;20052;-68
2021/11/03 06:37:14;;;;;;;6.18;2.50;;;30.90;92.70;;;;;;4190837;28;20076;-67
2021/11/03 06:39:19;;;;;;;11.32;3.28;;;31.00;92.70;;;;;;4192996;28;20451;-67
2021/11/03 06:41:25;;;;;;;5.63;2.58;;;31.00;92.40;;;;;;4193138;28;20060;-66
2021/11/03 06:43:29;;;;;;;6.38;2.60;;;31.10;92.40;;;;;;4191907;28;20083;-66
2021/11/03 06:45:34;;;;;;;9.73;2.60;;;31.30;92.30;;;;;;4191881;28;20040;-68
2021/11/03 06:47:38;;;;;;;6.65;2.75;;;31.40;92.30;;;;;;4192810;28;20064;-67
2021/11/03 06:49:43;;;;;;;6.20;2.38;;;31.40;92.30;;;;;;4191510;28;20043;-67
2021/11/03 06:51:47;;;;;;;8.32;2.30;;;31.50;92.10;;;;;;4193077;28;20764;-66
2021/11/03 06:53:51;;;;;;;5.57;2.33;;;31.40;92.10;;;;;;4193220;28;20066;-67
2021/11/03 06:55:56;;;;;;;7.90;2.50;;;31.50;92.30;;;;;;4195720;28;20495;-66
2021/11/03 06:58:00;;;;;;;7.60;2.70;;;31.50;92.00;;;;;;4192131;28;20047;-66
2021/11/03 07:00:08;;;;;;;7.47;2.35;;;31.50;91.60;;;;;;4194409;28;20070;-66
2021/11/03 07:02:15;;;;;;;6.13;2.38;;;31.50;91.60;;;;;;4192253;28;20068;-68
2021/11/03 07:04:20;;;;;;;5.10;2.30;;;31.50;91.80;;;;;;4193050;28;20059;-68
2021/11/03 07:06:24;;;;;;;6.45;2.33;;;31.50;91.70;;;;;;4192402;28;20131;-68
2021/11/03 07:08:29;;;;;;;5.15;2.47;;;31.50;91.80;;;;;;4193087;28;20542;-67
2021/11/03 07:10:40;;;;;;;4.05;2.47;;;31.40;92.00;;;;;;4185643;28;20040;-67
2021/11/03 07:12:44;;;;;;;6.40;2.65;;;31.40;92.10;;;;;;4186120;28;20043;-66
2021/11/03 07:14:49;;;;;;;6.22;2.35;;;31.40;92.30;;;;;;4192905;28;20056;-67
2021/11/03 07:16:54;;;;;;;8.43;2.85;;;31.60;92.40;;;;;;4190566;28;20048;-66
2021/11/03 07:18:58;;;;;;;11.10;2.78;;;31.60;92.30;;;;;;4189796;28;20047;-66
2021/11/03 07:21:03;;;;;;;6.22;2.63;;;31.70;92.40;;;;;;4192692;28;20075;-66
2021/11/03 07:23:10;;;;;;;8.02;2.40;;;31.70;92.60;;;;;;4192766;28;20045;-67
2021/11/03 07:25:19;;;;;;;4.45;2.17;;;31.70;92.10;;;;;;4192401;28;20439;-67
2021/11/03 07:27:23;;;;;;;4.22;2.33;;;31.60;91.80;;;;;;4193553;28;20068;-67
2021/11/03 07:29:28;;;;;;;6.38;2.47;;;31.60;91.50;;;;;;4185295;28;20044;-67
2021/11/03 07:31:32;;;;;;;5.18;2.42;;;31.60;91.30;;;;;;4187083;28;20079;-66
2021/11/03 07:33:38;;;;;;;5.45;2.40;;;31.60;91.40;;;;;;4195572;28;20041;-67
2021/11/03 07:35:43;;;;;;;6.90;2.67;;;31.60;90.90;;;;;;4196838;28;20047;-68
2021/11/03 07:37:48;;;;;;;6.28;2.50;;;31.60;91.10;;;;;;4194272;28;20056;-66
2021/11/03 07:39:52;;;;;;;3.88;2.03;;;31.60;90.80;;;;;;4196567;28;20071;-67
2021/11/03 07:41:57;;;;;;;4.80;2.22;;;31.60;91.30;;;;;;4196782;28;20076;-67
2021/11/03 07:44:12;;;;;;;5.82;2.25;;;31.60;91.20;;;;;;4195276;28;20554;-67
2021/11/03 07:46:18;;;;;;;6.70;2.35;;;31.50;91.50;;;;;;4188968;28;20127;-68
2021/11/03 07:48:35;;;;;;;6.13;2.20;;;31.60;91.70;;;;;;4195391;28;20036;-67
2021/11/03 07:50:46;;;;;;;5.65;2.58;;;31.60;91.70;;;;;;4188122;28;20471;-68
2021/11/03 07:52:51;;;;;;;7.13;2.20;;;31.60;91.60;;;;;;4192420;28;20036;-67
2021/11/03 07:54:56;;;;;;;8.75;2.40;;;31.70;91.80;;;;;;4195863;28;20127;-68
2021/11/03 07:57:01;;;;;;;5.00;1.92;;;31.70;92.00;;;;;;4192776;28;20487;-67
2021/11/03 07:59:06;;;;;;;4.60;2.10;;;31.80;92.00;;;;;;4195141;28;20124;-67
2021/11/03 08:01:11;;;;;;;4.28;1.95;;;31.80;91.60;;;;;;4195406;28;20143;-67
2021/11/03 08:03:17;;;;;;;5.07;2.20;;;31.80;91.30;;;;;;4195209;28;20084;-67
2021/11/03 08:05:28;;;;;;;8.02;2.33;;;31.90;90.70;;;;;;4192891;28;20392;-68
2021/11/03 08:07:34;;;;;;;4.32;2.35;;;31.90;91.20;;;;;;4195347;28;20408;-67
2021/11/03 08:09:46;;;;;;;7.35;2.50;;;31.90;91.20;;;;;;4195775;28;20036;-68
2021/11/03 08:11:53;;;;;;;5.13;2.17;;;31.90;91.30;;;;;;4195376;28;20438;-67
2021/11/03 08:14:01;;;;;;;8.82;2.85;;;31.90;91.00;;;;;;4194971;28;20526;-68
2021/11/03 08:16:08;;;;;;;5.90;2.58;;;31.80;91.30;;;;;;4195758;28;20535;-68
2021/11/03 08:18:13;;;;;;;6.97;2.58;;;31.80;91.20;;;;;;4195480;28;20148;-66
2021/11/03 08:20:21;;;;;;;6.82;2.47;;;31.90;91.10;;;;;;4196365;28;20043;-66
2021/11/03 08:22:27;;;;;;;6.40;2.22;;;31.70;91.50;;;;;;4195302;28;20369;-68
2021/11/03 08:24:33;;;;;;;4.60;2.38;;;31.60;91.50;;;;;;4194148;28;20045;-68
2021/11/03 08:26:38;;;;;;;5.10;2.38;;;31.60;91.30;;;;;;4195083;28;20057;-68
2021/11/03 08:28:43;;;;;;;4.78;2.22;;;31.60;91.10;;;;;;4195401;28;20064;-67
2021/11/03 08:30:48;;;;;;;8.43;2.70;;;31.50;91.50;;;;;;4195276;28;20040;-67
2021/11/03 08:33:11;;;;;;;6.82;2.67;;;31.40;91.40;;;;;;4193361;28;20040;-67
2021/11/03 08:35:15;;;;;;;8.25;2.60;;;31.40;91.10;;;;;;4194059;28;20056;-67
2021/11/03 08:37:22;;;;;;;6.00;2.47;;;31.20;91.20;;;;;;4194007;28;20053;-66
2021/11/03 08:39:26;;;;;;;6.63;2.17;;;31.10;91.40;;;;;;4191728;28;20556;-67
2021/11/03 08:41:35;;;;;;;7.57;2.30;;;31.10;91.50;;;;;;4193549;28;20523;-67
2021/11/03 08:43:42;;;;;;;7.70;2.60;;;31.20;92.20;;;;;;4192655;28;20103;-67
2021/11/03 08:45:47;;;;;;;5.18;2.45;;;31.10;91.90;;;;;;4182651;28;20044;-66
2021/11/03 08:47:52;;;;;;;8.13;2.90;;;31.00;91.50;;;;;;4191304;28;20071;-67
2021/11/03 08:49:56;;;;;;;8.25;3.25;;;31.00;91.70;;;;;;4192985;28;20115;-68
2021/11/03 08:52:00;;;;;;;8.48;3.30;;;31.10;91.50;;;;;;4193996;28;20055;-67
2021/11/03 08:54:07;;;;;;;9.13;2.80;;;31.00;91.20;;;;;;4191275;28;20044;-67
2021/11/03 08:56:11;;;;;;;4.43;2.08;;;31.00;91.10;;;;;;4189480;28;20548;-68
2021/11/03 08:58:17;;;;;;;8.32;3.05;;;31.00;91.20;;;;;;4192962;28;20549;-68
2021/11/03 09:00:25;;;;;;;5.50;2.40;;;31.00;91.60;;;;;;4191780;28;20056;-68
2021/11/03 09:02:30;;;;;;;5.45;2.42;;;31.00;91.60;;;;;;4182847;28;20076;-68
2021/11/03 09:04:34;;;;;;;4.65;2.30;;;31.10;91.20;;;;;;4191677;28;20052;-69
2021/11/03 09:06:39;;;;;;;6.47;2.25;;;31.10;91.20;;;;;;4192314;28;20086;-66
2021/11/03 09:08:47;;;;;;;7.15;2.67;;;31.10;91.10;;;;;;4192735;28;20531;-68
2021/11/03 09:10:55;;;;;;;5.47;2.78;;;31.10;91.60;;;;;;4192910;28;20317;-68
2021/11/03 09:12:59;;;;;;;7.30;3.60;;;31.10;91.30;;;;;;4192020;28;20198;-68
2021/11/03 09:15:04;;;;;;;6.03;2.72;;;31.20;91.20;;;;;;4192098;28;20552;-68
2021/11/03 09:17:10;;;;;;;8.30;2.45;;;31.20;91.00;;;;;;4192980;28;20459;-68
2021/11/03 09:19:14;;;;;;;5.38;2.67;;;31.10;91.30;;;;;;4191624;28;20391;-67
2021/11/03 09:21:21;;;;;;;7.82;3.10;;;31.10;91.30;;;;;;4192352;28;20392;-67
2021/11/03 09:23:25;;;;;;;12.68;3.20;;;31.20;91.50;;;;;;4190815;28;20048;-68
2021/11/03 09:25:30;;;;;;;7.47;2.70;;;31.20;91.40;;;;;;4192758;28;20048;-68
2021/11/03 09:27:35;;;;;;;6.72;2.50;;;31.30;91.20;;;;;;4191613;28;20033;-67
2021/11/03 09:29:41;;;;;;;8.23;2.90;;;31.20;91.30;;;;;;4190781;28;20072;-67
2021/11/03 09:31:46;;;;;;;4.90;2.42;;;31.30;91.30;;;;;;4192990;28;20032;-67
2021/11/03 09:33:50;;;;;;;5.57;2.38;;;31.30;91.40;;;;;;4192238;28;20123;-67
2021/11/03 09:35:55;;;;;;;8.20;2.88;;;31.40;91.50;;;;;;4191739;28;20041;-68
2021/11/03 09:38:00;;;;;;;5.60;2.40;;;31.40;91.40;;;;;;4194151;28;20443;-68
2021/11/03 09:40:06;;;;;;;5.28;2.67;;;31.40;91.30;;;;;;4194363;28;20120;-68
2021/11/03 09:42:12;;;;;;;7.47;2.42;;;31.40;91.30;;;;;;4194655;28;20056;-68
2021/11/03 09:44:20;;;;;;;5.70;2.55;;;31.40;91.30;;;;;;4194783;28;20048;-68
2021/11/03 09:46:39;;;;;;;6.88;3.13;;;31.40;91.50;;;;;;4194752;28;20040;-68
2021/11/03 09:48:44;;;;;;;7.22;3.50;;;31.40;91.60;;;;;;4192476;28;20040;-67
2021/11/03 09:50:51;;;;;;;8.40;3.42;;;31.40;91.80;;;;;;4191944;28;20056;-68
2021/11/03 09:52:58;;;;;;;5.57;3.38;;;31.40;92.00;;;;;;4194822;28;20063;-68
2021/11/03 09:55:19;;;;;;;7.93;3.58;;;31.30;92.10;;;;;;4194439;28;20136;-66
2021/11/03 09:57:57;;;;;;;9.77;3.70;;;31.20;92.30;;;;;;4192632;28;20052;-68
2021/11/03 10:00:27;;;;;;;10.15;4.25;;;31.20;92.50;;;;;;4194972;28;20135;-68
2021/11/03 10:02:56;;;;;;;13.10;5.70;;;31.20;92.70;;;;;;4193453;28;20570;-67
2021/11/03 10:05:25;;;;;;;19.50;7.95;;;31.10;93.00;;;;;;4192787;28;20040;-67
2021/11/03 10:07:51;;;;;;;17.45;7.38;;;31.10;93.60;;;;;;4193327;28;20079;-66
2021/11/03 10:09:55;;;;;;;15.93;7.20;;;31.00;93.70;;;;;;4194607;28;20044;-67
2021/11/03 10:12:00;;;;;;;15.63;6.18;;;31.00;93.60;;;;;;4191911;28;20071;-66
2021/11/03 10:14:05;;;;;;;15.88;5.70;;;31.00;93.80;;;;;;4190165;28;20127;-67
2021/11/03 10:16:32;;;;;;;12.45;5.47;;;30.90;93.80;;;;;;4188403;28;20480;-67
2021/11/03 10:18:41;;;;;;;14.20;5.40;;;30.90;93.90;;;;;;4189908;28;20040;-67
2021/11/03 10:21:00;;;;;;;14.38;5.25;;;30.90;93.90;;;;;;4189729;28;20079;-67
2021/11/03 10:23:07;;;;;;;18.02;5.43;;;30.90;94.00;;;;;;4191710;28;20079;-67
2021/11/03 10:25:25;;;;;;;18.88;5.50;;;30.80;94.00;;;;;;4190349;28;20550;-67
2021/11/03 10:27:30;;;;;;;12.23;4.80;;;30.80;94.10;;;;;;4190090;28;20530;-67
2021/11/03 10:29:38;;;;;;;17.05;5.45;;;30.70;94.10;;;;;;4194229;28;20055;-67
2021/11/03 10:32:02;;;;;;;11.80;5.40;;;30.70;94.20;;;;;;4194033;28;20098;-67
2021/11/03 10:34:27;;;;;;;12.10;5.93;;;30.70;94.20;;;;;;4191320;28;20055;-67
2021/11/03 10:36:41;;;;;;;10.93;5.15;;;30.70;94.30;;;;;;4193824;28;20507;-66
2021/11/03 10:38:56;;;;;;;16.10;5.65;;;30.70;94.30;;;;;;4191369;28;20403;-67
2021/11/03 10:41:05;;;;;;;13.70;5.70;;;30.60;94.30;;;;;;4172320;28;20102;-67
2021/11/03 10:43:39;;;;;;;17.13;6.55;;;30.60;94.60;;;;;;4187335;28;20052;-66
2021/11/03 10:45:44;;;;;;;11.93;6.28;;;30.50;95.10;;;;;;4192126;28;20048;-67
2021/11/03 10:47:53;;;;;;;14.10;6.65;;;30.50;95.30;;;;;;4188420;28;20091;-67
2021/11/03 10:50:03;;;;;;;15.80;7.32;;;30.40;95.50;;;;;;4191295;28;20318;-67
2021/11/03 10:52:47;;;;;;;20.45;7.30;;;30.40;95.70;;;;;;4191375;28;20044;-67
2021/11/03 10:54:58;;;;;;;13.63;6.88;;;30.40;95.70;;;;;;4189456;28;20776;-67
2021/11/03 10:57:14;;;;;;;16.40;7.00;;;30.40;95.70;;;;;;4187968;28;20048;-66
2021/11/03 10:59:27;;;;;;;17.50;7.13;;;30.40;95.70;;;;;;4192562;28;20090;-67
2021/11/03 11:01:36;;;;;;;14.95;5.88;;;30.40;95.80;;;;;;4190846;28;20414;-67